createdAt,value
2019-01-11T00:00:01.470Z,26.23
2019-01-11T00:02:32.007Z,18.95
2019-01-11T00:05:02.662Z,20.30
2019-01-11T00:07:33.267Z,20.43
2019-01-11T00:10:04.039Z,20.90
2019-01-11T00:12:34.598Z,19.52
2019-01-11T00:15:05.947Z,18.60
2019-01-11T00:17:36.514Z,22.65
2019-01-11T00:20:07.765Z,19.48
2019-01-11T00:22:38.284Z,23.32
2019-01-11T00:25:09.242Z,23.42
2019-01-11T00:27:39.823Z,21.57
2019-01-11T00:30:11.095Z,21.90
2019-01-11T00:32:41.689Z,22.75
2019-01-11T00:35:12.213Z,22.73
2019-01-11T00:37:42.690Z,22.70
2019-01-11T00:40:13.326Z,20.80
2019-01-11T00:42:43.891Z,21.13
2019-01-11T05:02:07.301Z,71.53
2019-01-11T05:04:37.832Z,46.73
2019-01-11T05:07:08.398Z,66.45
2019-01-11T05:09:39.037Z,65.90
2019-01-11T05:12:09.488Z,61.42
2019-01-11T05:14:39.959Z,74.42
2019-01-11T05:17:10.465Z,56.68
2019-01-11T05:19:40.931Z,71.42
2019-01-11T05:22:11.400Z,45.70
2019-01-11T05:24:41.912Z,54.50
2019-01-11T05:27:12.433Z,68.33
2019-01-11T05:29:42.912Z,38.20
2019-01-11T05:32:13.481Z,67.53
2019-01-11T05:34:43.959Z,48.02
2019-01-11T05:37:14.465Z,64.40
2019-01-11T05:39:45.032Z,50.23
2019-01-11T05:42:15.650Z,67.87
2019-01-11T05:44:46.131Z,43.30
2019-01-11T05:47:16.672Z,50.30
2019-01-11T05:49:47.229Z,53.95
2019-01-11T05:52:17.732Z,53.13
2019-01-11T05:54:48.173Z,57.85
2019-01-11T05:57:18.724Z,62.27
2019-01-11T05:59:49.216Z,72.95
2019-01-11T06:02:19.829Z,57.13
2019-01-11T06:05:10.937Z,53.25
2019-01-11T06:07:46.077Z,57.78
2019-01-11T06:10:17.183Z,40.83
2019-01-11T06:12:47.828Z,50.78
2019-01-11T06:15:18.315Z,49.10
2019-01-11T06:17:48.834Z,50.98
2019-01-11T06:20:19.299Z,46.60
2019-01-11T06:22:49.839Z,55.98
2019-01-11T06:25:20.304Z,82.80
2019-01-11T06:27:50.779Z,63.85
2019-01-11T06:30:21.309Z,52.70
2019-01-11T06:32:51.792Z,46.53
2019-01-11T06:35:22.336Z,55.65
2019-01-11T06:37:52.933Z,48.60
2019-01-11T06:40:23.424Z,46.58
2019-01-11T06:42:53.903Z,49.80
2019-01-11T07:01:38.269Z,50.08
2019-01-11T07:04:08.880Z,65.85
2019-01-11T07:06:40.962Z,67.75
2019-01-11T07:09:11.493Z,67.55
2019-01-11T07:11:42.142Z,62.23
2019-01-11T07:14:13.417Z,50.70
2019-01-11T07:16:45.349Z,61.90
2019-01-11T07:19:15.955Z,64.30
2019-01-11T07:21:46.615Z,57.33
2019-01-11T07:24:17.286Z,69.03
2019-01-11T07:26:47.889Z,67.67
2019-01-11T07:29:18.482Z,49.03
2019-01-11T07:31:49.189Z,68.97
2019-01-11T07:34:19.890Z,62.70
2019-01-11T07:36:53.050Z,54.08
2019-01-11T07:39:31.268Z,61.45
2019-01-11T07:42:01.960Z,61.92
2019-01-11T07:44:32.628Z,47.08
2019-01-11T07:47:03.516Z,64.27
2019-01-11T07:49:34.216Z,40.30
2019-01-11T07:52:04.843Z,40.70
2019-01-11T07:54:35.520Z,39.70
2019-01-11T07:57:06.171Z,59.08
2019-01-11T07:59:36.801Z,44.05
2019-01-11T08:02:07.675Z,48.13
2019-01-11T08:04:38.392Z,41.33
2019-01-11T08:07:10.012Z,59.08
2019-01-11T08:09:40.722Z,39.90
2019-01-11T08:12:11.346Z,45.60
2019-01-11T08:14:41.898Z,36.28
2019-01-11T08:17:12.519Z,45.03
2019-01-11T08:19:43.095Z,26.37
2019-01-11T08:22:27.409Z,32.63
2019-01-11T08:25:03.183Z,39.20
2019-01-11T08:27:33.757Z,49.10
2019-01-11T08:30:05.417Z,20.77
2019-01-11T08:32:35.926Z,35.58
2019-01-11T08:35:09.094Z,25.27
2019-01-11T08:37:39.834Z,31.55
2019-01-11T08:40:11.730Z,34.23
2019-01-11T08:42:42.273Z,26.23
2019-01-11T08:45:13.467Z,30.43
2019-01-11T08:47:44.267Z,26.97
2019-01-11T08:50:18.536Z,31.55
2019-01-11T08:52:49.214Z,29.30
2019-01-11T08:55:21.524Z,29.40
2019-01-11T08:57:52.341Z,14.50
2019-01-11T09:00:23.125Z,17.05
2019-01-11T09:02:53.823Z,17.85
2019-01-11T09:05:24.515Z,14.33
2019-01-11T09:07:55.177Z,16.52
2019-01-11T09:10:25.772Z,16.07
2019-01-11T09:12:56.423Z,19.95
2019-01-11T09:15:26.970Z,15.07
2019-01-11T09:18:17.235Z,20.77
2019-01-11T09:20:47.798Z,21.93
2019-01-11T09:23:18.577Z,15.48
2019-01-11T09:25:49.727Z,12.43
2019-01-11T09:28:20.389Z,12.45
2019-01-11T09:30:51.107Z,14.13
2019-01-11T09:33:21.706Z,15.80
2019-01-11T09:35:52.622Z,16.00
2019-01-11T09:38:23.210Z,10.13
2019-01-11T09:40:53.841Z,8.43
2019-01-11T09:43:24.403Z,7.83
2019-01-11T09:45:55.106Z,22.45
2019-01-11T09:48:25.720Z,13.75
2019-01-11T09:50:56.294Z,15.15
2019-01-11T09:53:26.958Z,11.88
2019-01-11T09:55:57.571Z,12.15
2019-01-11T09:58:28.173Z,6.15
2019-01-11T10:00:59.295Z,5.80
2019-01-11T10:03:30.095Z,7.10
2019-01-11T10:06:00.750Z,10.70
2019-01-11T10:08:31.297Z,11.38
2019-01-11T10:11:02.185Z,8.40
2019-01-11T10:13:32.841Z,15.85
2019-01-11T10:16:03.486Z,10.18
2019-01-11T10:18:34.153Z,11.00
2019-01-11T10:21:04.793Z,9.15
2019-01-11T10:23:35.459Z,10.48
2019-01-11T10:26:06.375Z,9.43
2019-01-11T10:28:37.026Z,9.80
2019-01-11T10:31:07.687Z,11.80
2019-01-11T10:33:38.294Z,6.00
2019-01-11T10:36:08.923Z,7.62
2019-01-11T10:38:39.597Z,4.70
2019-01-11T10:41:10.271Z,8.60
2019-01-11T10:43:40.850Z,5.60
2019-01-11T10:46:30.282Z,4.97
2019-01-11T10:49:21.935Z,3.62
2019-01-11T10:51:52.688Z,14.87
2019-01-11T10:54:39.328Z,3.50
2019-01-11T10:57:13.172Z,5.42
2019-01-11T10:59:44.040Z,7.62
2019-01-11T11:02:14.658Z,8.85
2019-01-11T11:04:45.231Z,9.40
2019-01-11T11:07:15.973Z,8.90
2019-01-11T11:09:46.587Z,8.90
2019-01-11T11:12:17.211Z,4.65
2019-01-11T11:14:47.747Z,4.47
2019-01-11T11:17:18.384Z,4.78
2019-01-11T11:19:48.969Z,6.72
2019-01-11T11:22:19.547Z,7.08
2019-01-11T11:24:50.125Z,7.65
2019-01-11T11:27:20.991Z,6.80
2019-01-11T11:29:51.716Z,10.43
2019-01-11T11:32:28.603Z,7.92
2019-01-11T11:34:59.173Z,8.88
2019-01-11T11:37:29.708Z,9.90
2019-01-11T11:40:00.381Z,9.68
2019-01-11T11:42:30.900Z,4.42
2019-01-11T11:45:01.425Z,4.72
2019-01-11T11:47:32.029Z,11.55
2019-01-11T11:50:02.626Z,7.55
2019-01-11T11:52:33.157Z,11.00
2019-01-11T11:55:03.696Z,10.08
2019-01-11T11:57:34.222Z,8.38
2019-01-11T12:00:07.112Z,6.50
2019-01-11T12:02:37.784Z,3.05
2019-01-11T12:05:08.646Z,1.95
2019-01-11T12:07:39.166Z,4.80
2019-01-11T12:10:12.736Z,3.98
2019-01-11T12:12:43.348Z,7.00
2019-01-11T12:15:15.239Z,11.12
2019-01-11T12:17:45.776Z,4.00
2019-01-11T12:20:37.434Z,8.95
2019-01-11T12:23:08.026Z,8.98
2019-01-11T12:25:38.578Z,4.20
2019-01-11T12:28:09.318Z,10.93
2019-01-11T12:30:40.013Z,6.92
2019-01-11T12:33:10.528Z,8.08
2019-01-11T12:35:41.085Z,9.05
2019-01-11T12:38:13.845Z,10.70
2019-01-11T12:40:44.036Z,10.72
2019-01-11T12:43:14.614Z,4.30
2019-01-11T12:46:04.235Z,10.38
2019-01-11T12:48:34.986Z,11.08
2019-01-11T12:51:05.569Z,12.55
2019-01-11T12:53:36.071Z,9.78
2019-01-11T12:56:06.595Z,4.50
2019-01-11T12:58:37.193Z,11.00
2019-01-11T13:01:07.885Z,8.10
2019-01-11T13:03:38.596Z,5.73
2019-01-11T13:06:09.287Z,9.13
2019-01-11T13:08:40.078Z,4.72
2019-01-11T13:11:10.818Z,11.50
2019-01-11T13:13:41.703Z,4.42
2019-01-11T13:16:12.454Z,10.53
2019-01-11T13:18:43.021Z,8.40
2019-01-11T13:21:13.812Z,5.53
2019-01-11T13:23:44.325Z,13.13
2019-01-11T13:26:14.827Z,10.68
2019-01-11T13:28:45.529Z,17.42
2019-01-11T13:31:16.158Z,15.10
2019-01-11T13:33:46.686Z,16.05
2019-01-11T13:36:20.712Z,17.63
2019-01-11T13:38:51.204Z,9.67
2019-01-11T13:41:21.757Z,8.50
2019-01-11T13:43:52.659Z,14.78
2019-01-11T13:46:23.239Z,25.90
2019-01-11T13:48:54.022Z,15.98
2019-01-11T13:51:24.681Z,14.17
2019-01-11T13:53:55.302Z,13.80
2019-01-11T13:56:25.932Z,20.72
2019-01-11T13:58:56.491Z,17.42
2019-01-11T14:01:27.063Z,13.95
2019-01-11T14:03:57.712Z,18.77
2019-01-11T14:06:28.329Z,21.57
2019-01-11T14:08:59.102Z,14.47
2019-01-11T14:11:29.701Z,14.53
2019-01-11T14:14:00.276Z,17.20
2019-01-11T14:16:30.850Z,11.55
2019-01-11T14:19:01.393Z,12.15
2019-01-11T14:21:32.616Z,26.07
2019-01-11T14:24:03.245Z,13.53
2019-01-11T14:26:33.827Z,14.20
2019-01-11T14:29:04.593Z,16.30
2019-01-11T14:31:35.108Z,17.32
2019-01-11T14:34:05.942Z,25.95
2019-01-11T14:36:36.472Z,25.03
2019-01-11T14:39:10.173Z,10.88
2019-01-11T14:41:41.095Z,20.57
2019-01-11T14:44:14.199Z,19.40
2019-01-11T14:46:44.752Z,30.70
2019-01-11T14:49:15.491Z,25.65
2019-01-11T14:51:46.074Z,20.08
2019-01-11T14:54:16.693Z,26.90
2019-01-11T14:56:47.793Z,22.60
2019-01-11T14:59:18.337Z,26.45
2019-01-11T15:01:48.832Z,19.20
2019-01-11T15:04:21.818Z,23.15
2019-01-11T15:06:52.361Z,25.50
2019-01-11T15:09:22.938Z,28.57
2019-01-11T15:11:53.536Z,29.18
2019-01-11T15:14:24.097Z,28.17
2019-01-11T15:16:54.638Z,24.32
2019-01-11T15:19:25.323Z,19.60
2019-01-11T15:21:55.989Z,26.85
2019-01-11T15:24:26.720Z,23.25
2019-01-11T15:26:57.501Z,25.77
2019-01-11T15:29:28.232Z,30.50
2019-01-11T15:31:58.902Z,17.70
2019-01-11T15:34:29.677Z,39.38
2019-01-11T15:37:00.483Z,28.13
2019-01-11T15:39:31.222Z,18.07
2019-01-11T15:42:02.084Z,27.77
2019-01-11T15:44:32.767Z,28.52
2019-01-11T15:47:03.586Z,23.12
2019-01-11T15:49:34.240Z,30.50
2019-01-11T15:52:05.321Z,28.05
2019-01-11T15:54:35.898Z,28.62
2019-01-11T15:57:06.552Z,36.80
2019-01-11T16:00:24.992Z,29.67
2019-01-11T16:02:55.721Z,25.90
2019-01-11T16:05:26.377Z,41.83
2019-01-11T16:07:57.058Z,41.73
2019-01-11T16:10:27.658Z,29.37
2019-01-11T16:13:23.923Z,26.17
2019-01-11T16:16:33.708Z,33.73
2019-01-11T16:19:04.259Z,33.05
2019-01-11T16:21:34.958Z,32.53
2019-01-11T16:24:06.093Z,26.05
2019-01-11T16:26:36.729Z,34.48
2019-01-11T16:29:07.255Z,37.00
2019-01-11T16:31:37.999Z,35.83
2019-01-11T16:34:09.854Z,34.78
2019-01-11T16:36:40.591Z,23.47
2019-01-11T16:39:11.659Z,29.63
2019-01-11T16:41:42.159Z,38.70
2019-01-11T16:44:12.689Z,39.33
2019-01-11T16:46:43.289Z,37.83
2019-01-11T16:49:13.820Z,45.10
2019-01-11T16:51:44.492Z,39.55
2019-01-11T16:54:15.207Z,31.55
2019-01-11T16:56:45.756Z,30.97
2019-01-11T16:59:16.352Z,42.00
2019-01-11T17:01:46.974Z,49.15
2019-01-11T17:04:17.514Z,38.38
2019-01-11T17:06:48.009Z,29.82
2019-01-11T17:09:18.526Z,34.97
2019-01-11T17:11:49.069Z,59.88
2019-01-11T17:14:19.573Z,27.67
2019-01-11T17:16:50.132Z,41.08
2019-01-11T17:19:20.635Z,36.73
2019-01-11T17:21:51.168Z,31.05
2019-01-11T17:24:21.713Z,27.57
2019-01-11T17:26:52.204Z,48.85
2019-01-11T17:29:22.685Z,49.87
2019-01-11T17:31:53.318Z,36.58
2019-01-11T17:34:23.803Z,36.57
2019-01-11T17:36:54.321Z,41.50
2019-01-11T17:39:24.878Z,36.80
2019-01-11T17:41:55.409Z,42.43
2019-01-11T17:44:25.887Z,55.43
2019-01-11T17:46:56.429Z,31.10
2019-01-11T17:49:26.849Z,33.10
2019-01-11T17:51:57.349Z,35.60
2019-01-11T17:54:27.847Z,39.45
2019-01-11T17:56:58.348Z,48.87
2019-01-11T17:59:28.945Z,35.92
2019-01-11T18:01:59.473Z,43.58
2019-01-11T18:04:29.985Z,54.00
2019-01-11T18:07:00.453Z,43.30
2019-01-11T18:09:30.993Z,30.25
2019-01-11T18:12:01.525Z,47.50
2019-01-11T18:14:32.047Z,44.33
2019-01-11T18:17:02.600Z,55.83
2019-01-11T18:19:33.128Z,47.67
2019-01-11T18:22:03.733Z,52.97
2019-01-11T18:24:34.514Z,46.98
2019-01-11T18:27:05.048Z,29.92
2019-01-11T18:29:35.561Z,44.70
2019-01-11T18:32:06.184Z,48.78
2019-01-11T18:34:36.768Z,42.88
2019-01-11T18:37:07.256Z,51.63
2019-01-11T18:39:37.875Z,46.88
2019-01-11T18:42:08.476Z,52.03
2019-01-11T18:44:39.035Z,39.65
2019-01-11T18:47:09.866Z,40.08
2019-01-11T18:49:40.491Z,44.27
2019-01-11T18:52:11.057Z,36.60
2019-01-11T18:54:41.605Z,48.00
2019-01-11T18:57:12.149Z,43.90
2019-01-11T18:59:42.696Z,39.83
2019-01-11T19:02:13.281Z,47.45
2019-01-11T19:04:43.798Z,37.55
2019-01-11T19:07:14.414Z,54.03
2019-01-11T19:09:44.927Z,42.17
2019-01-11T19:12:15.467Z,47.17
2019-01-11T19:14:45.968Z,48.80
2019-01-11T19:17:16.641Z,46.08
2019-01-11T19:19:47.585Z,50.55
2019-01-11T19:22:18.086Z,49.43
2019-01-11T19:24:48.738Z,49.10
2019-01-11T19:27:19.524Z,49.37
2019-01-11T19:30:21.031Z,48.85
2019-01-11T19:32:52.555Z,53.75
2019-01-11T19:35:23.326Z,52.58
2019-01-11T19:37:54.268Z,49.30
2019-01-11T19:40:25.163Z,52.30
2019-01-11T19:42:55.902Z,55.33
2019-01-11T19:45:26.617Z,41.95
2019-01-11T19:47:57.553Z,64.92
2019-01-11T19:50:28.302Z,44.85
2019-01-11T19:52:59.038Z,46.30
2019-01-11T19:55:29.843Z,40.67
2019-01-11T19:58:02.942Z,46.58
2019-01-11T20:00:34.100Z,44.60
2019-01-11T20:03:04.788Z,56.10
2019-01-11T20:05:35.348Z,52.73
2019-01-11T20:08:06.220Z,42.60
2019-01-11T20:10:37.349Z,42.25
2019-01-11T20:13:07.933Z,45.03
2019-01-11T20:15:38.539Z,42.53
2019-01-11T20:18:09.493Z,38.38
2019-01-11T20:20:40.312Z,55.25
2019-01-11T20:23:11.410Z,36.17
2019-01-11T20:25:42.390Z,47.48
2019-01-11T20:28:13.000Z,40.92
2019-01-11T20:30:43.783Z,29.77
2019-01-11T20:33:18.425Z,55.90
2019-01-11T20:35:53.145Z,56.10
2019-01-11T20:38:23.955Z,50.05
2019-01-11T20:40:55.685Z,43.23
2019-01-11T20:43:26.348Z,47.95
2019-01-11T20:46:03.119Z,48.87
2019-01-11T20:48:30.706Z,31.35
2019-01-11T20:51:01.303Z,31.33
2019-01-11T20:53:32.123Z,46.07
2019-01-11T20:56:02.717Z,50.70
2019-01-11T20:58:33.348Z,30.80
2019-01-11T21:01:05.391Z,26.48
2019-01-11T21:03:36.014Z,46.67
2019-01-11T21:06:07.196Z,36.95
2019-01-11T21:08:37.850Z,50.12
2019-01-11T21:11:08.443Z,45.10
2019-01-11T21:13:39.030Z,39.43
2019-01-11T21:16:09.702Z,55.43
2019-01-11T21:18:40.316Z,44.38
2019-01-11T21:21:10.936Z,49.65
2019-01-11T21:23:48.438Z,32.30
2019-01-11T21:26:13.893Z,43.42
2019-01-11T21:28:44.490Z,30.40
2019-01-11T21:31:18.166Z,48.43
2019-01-11T21:33:48.821Z,43.08
2019-01-11T21:36:19.342Z,37.23
2019-01-11T21:38:51.155Z,34.40
2019-01-11T21:41:21.720Z,35.00
2019-01-11T21:43:52.261Z,43.58
2019-01-11T21:46:22.942Z,50.03
2019-01-11T21:48:54.837Z,56.08
2019-01-11T21:51:25.347Z,42.10
2019-01-11T21:53:56.019Z,49.30
2019-01-11T21:56:26.939Z,46.42
2019-01-11T21:58:58.322Z,29.63
2019-01-11T22:01:28.871Z,40.55
2019-01-11T22:03:59.440Z,39.30
2019-01-11T22:06:30.073Z,44.58
2019-01-11T22:09:00.667Z,57.88
2019-01-11T22:11:31.265Z,38.30
2019-01-11T22:14:02.005Z,39.60
2019-01-11T22:16:32.660Z,45.73
2019-01-11T22:19:03.202Z,46.18
2019-01-11T22:21:33.753Z,39.33
2019-01-11T22:24:04.313Z,33.20
2019-01-11T22:26:34.829Z,28.98
2019-01-11T22:29:05.333Z,35.73
2019-01-11T22:31:35.854Z,32.28
2019-01-11T22:34:06.357Z,31.93
2019-01-11T22:36:36.885Z,34.73
2019-01-11T22:39:09.852Z,39.30
2019-01-11T22:41:40.352Z,51.50
2019-01-11T22:44:10.890Z,39.45
2019-01-11T22:46:41.546Z,36.42
2019-01-11T22:49:12.065Z,52.15
2019-01-11T22:51:42.535Z,38.92
2019-01-11T22:54:13.075Z,33.05
2019-01-11T22:56:43.571Z,43.45
2019-01-11T22:59:14.101Z,51.05
2019-01-11T23:02:25.959Z,33.88
2019-01-11T23:04:56.450Z,31.25
2019-01-11T23:08:05.409Z,36.23
2019-01-11T23:11:24.933Z,36.53
2019-01-11T23:13:55.520Z,36.00
2019-01-11T23:16:40.226Z,48.50
2019-01-11T23:19:10.862Z,41.30
2019-01-11T23:21:41.376Z,42.03
2019-01-11T23:24:17.385Z,32.63
2019-01-11T23:26:44.178Z,34.40
2019-01-11T23:29:14.698Z,55.20
2019-01-11T23:31:45.189Z,32.40
2019-01-11T23:34:15.771Z,25.23
2019-01-11T23:36:46.243Z,42.20
2019-01-11T23:39:16.768Z,27.50
2019-01-11T23:41:47.298Z,29.12
2019-01-11T23:44:17.787Z,34.03
2019-01-11T23:46:48.285Z,27.32
2019-01-11T23:49:18.846Z,36.40
2019-01-11T23:51:49.348Z,24.00
2019-01-11T23:54:24.458Z,27.87
2019-01-11T23:56:52.225Z,29.48
2019-01-11T23:59:22.728Z,36.17
